Main page
METAR-TAF:

METAR-TAF

Airports :

Kuopio Airport

Kuopio, Finland

latitude: 63-01N, longitude: 027-48E, elevation: 98 m

Current weather observation

The report was made 17 minutes ago, at 05:50 UTC
Wind 9 kt from the West
Temperature 0°C
Humidity 86%
Pressure 991 hPa
Visibility 10 km or more
no clouds below 1500 m and no cumulonimbus

METAR: EFKU 240550Z AUTO 28009KT CAVOK 00/M02 Q0991

Time: 08:07 (06:07 UTC)

Forecast

The report was made 38 minutes ago, at 05:29 UTC
Forecast valid from 24 at 06 UTC to 25 at 06 UTC
Wind 9 kt from the West
Visibility 10 km or more
no clouds below 1500 m and no cumulonimbus
Temporary
from 24 at 21 UTC to 25 at 04 UTC
Visibility: 6000 m
light snow

TAF: EFKU 240529Z 2406/2506 28009KT CAVOK TEMPO 2421/2504 6000 -SN

Weather observations and forecasts of more than 4000 airports (METAR and TAF reports).

The available stations are represented by yellow and red dots on the map.

Hover mouse over dot to see the name of the station.

Then click to see weather observations and forecasts.

To change the map : click on the green buttons with a black cross to zoom in, on the green button with a dash to zoom out, or on the green arrows for adjacent maps.


METAR-TAF: